sensor_id;sensor_type;location;lat;lon;timestamp;pressure;altitude;pressure_sealevel;temperature;humidity
54994;BME280;40891;47.242;8.648;2023-07-29T00:02:06;95984.31;;;19.91;100.00
54994;BME280;40891;47.242;8.648;2023-07-29T00:04:32;95980.78;;;19.85;100.00
54994;BME280;40891;47.242;8.648;2023-07-29T00:06:57;95978.50;;;19.78;100.00
54994;BME280;40891;47.242;8.648;2023-07-29T00:09:22;95977.00;;;19.71;100.00
54994;BME280;40891;47.242;8.648;2023-07-29T00:11:48;95969.06;;;19.69;100.00
54994;BME280;40891;47.242;8.648;2023-07-29T00:14:13;95968.81;;;19.67;100.00
54994;BME280;40891;47.242;8.648;2023-07-29T00:16:38;95963.72;;;19.66;100.00
54994;BME280;40891;47.242;8.648;2023-07-29T00:19:04;95959.91;;;19.58;100.00
54994;BME280;40891;47.242;8.648;2023-07-29T00:21:29;95961.69;;;19.61;100.00
54994;BME280;40891;47.242;8.648;2023-07-29T00:23:55;95963.06;;;19.49;100.00
54994;BME280;40891;47.242;8.648;2023-07-29T00:26:22;95961.03;;;19.44;100.00
54994;BME280;40891;47.242;8.648;2023-07-29T00:28:48;95970.50;;;19.46;100.00
54994;BME280;40891;47.242;8.648;2023-07-29T00:31:13;95958.31;;;19.68;100.00
54994;BME280;40891;47.242;8.648;2023-07-29T00:33:38;95956.84;;;19.56;100.00
54994;BME280;40891;47.242;8.648;2023-07-29T00:36:04;95953.81;;;19.48;100.00
54994;BME280;40891;47.242;8.648;2023-07-29T00:38:29;95952.25;;;19.53;100.00
54994;BME280;40891;47.242;8.648;2023-07-29T00:40:57;95954.84;;;19.51;100.00
54994;BME280;40891;47.242;8.648;2023-07-29T00:43:22;95943.06;;;19.47;100.00
54994;BME280;40891;47.242;8.648;2023-07-29T00:45:47;95941.00;;;19.47;100.00
54994;BME280;40891;47.242;8.648;2023-07-29T00:48:13;95935.13;;;19.45;100.00
54994;BME280;40891;47.242;8.648;2023-07-29T00:50:39;95938.50;;;19.38;100.00
54994;BME280;40891;47.242;8.648;2023-07-29T00:53:05;95927.75;;;19.31;100.00
54994;BME280;40891;47.242;8.648;2023-07-29T00:55:30;95924.72;;;19.24;100.00
54994;BME280;40891;47.242;8.648;2023-07-29T00:57:55;95935.50;;;19.20;100.00
54994;BME280;40891;47.242;8.648;2023-07-29T01:00:21;95931.66;;;19.17;100.00
54994;BME280;40891;47.242;8.648;2023-07-29T01:02:47;95940.88;;;19.23;100.00
54994;BME280;40891;47.242;8.648;2023-07-29T01:05:14;95932.88;;;19.33;100.00
54994;BME280;40891;47.242;8.648;2023-07-29T01:07:52;95923.69;;;19.27;100.00
54994;BME280;40891;47.242;8.648;2023-07-29T01:12:52;95936.25;;;19.26;100.00
54994;BME280;40891;47.242;8.648;2023-07-29T01:15:25;95934.69;;;19.30;100.00
54994;BME280;40891;47.242;8.648;2023-07-29T01:18:18;95932.09;;;19.32;100.00
54994;BME280;40891;47.242;8.648;2023-07-29T01:20:47;95927.25;;;19.33;100.00
54994;BME280;40891;47.242;8.648;2023-07-29T01:23:13;95935.16;;;19.34;100.00
54994;BME280;40891;47.242;8.648;2023-07-29T01:25:38;95935.94;;;19.35;100.00
54994;BME280;40891;47.242;8.648;2023-07-29T01:28:04;95934.16;;;19.32;100.00
54994;BME280;40891;47.242;8.648;2023-07-29T01:30:34;95928.28;;;19.30;100.00
54994;BME280;40891;47.242;8.648;2023-07-29T01:33:11;95927.53;;;19.24;100.00
54994;BME280;40891;47.242;8.648;2023-07-29T01:35:45;95926.84;;;19.12;100.00
54994;BME280;40891;47.242;8.648;2023-07-29T01:38:18;95944.81;;;19.09;100.00
54994;BME280;40891;47.242;8.648;2023-07-29T01:40:47;95934.31;;;19.04;100.00
54994;BME280;40891;47.242;8.648;2023-07-29T01:43:14;95940.97;;;19.07;100.00
54994;BME280;40891;47.242;8.648;2023-07-29T01:45:39;95929.94;;;19.09;100.00
54994;BME280;40891;47.242;8.648;2023-07-29T01:48:05;95939.66;;;19.13;100.00
54994;BME280;40891;47.242;8.648;2023-07-29T01:50:31;95937.81;;;19.21;100.00
54994;BME280;40891;47.242;8.648;2023-07-29T01:52:57;95934.22;;;19.21;100.00
54994;BME280;40891;47.242;8.648;2023-07-29T01:55:23;95927.59;;;19.18;100.00
54994;BME280;40891;47.242;8.648;2023-07-29T01:57:48;95927.28;;;19.22;100.00
54994;BME280;40891;47.242;8.648;2023-07-29T02:00:14;95922.44;;;19.22;100.00
54994;BME280;40891;47.242;8.648;2023-07-29T02:02:40;95926.28;;;19.19;100.00
54994;BME280;40891;47.242;8.648;2023-07-29T02:05:05;95924.22;;;19.20;100.00
54994;BME280;40891;47.242;8.648;2023-07-29T02:07:31;95930.19;;;19.05;100.00
54994;BME280;40891;47.242;8.648;2023-07-29T02:09:56;95919.47;;;19.03;100.00
54994;BME280;40891;47.242;8.648;2023-07-29T02:12:21;95915.88;;;19.03;100.00
54994;BME280;40891;47.242;8.648;2023-07-29T02:14:46;95913.03;;;19.03;100.00
54994;BME280;40891;47.242;8.648;2023-07-29T02:17:12;95911.53;;;19.02;100.00
54994;BME280;40891;47.242;8.648;2023-07-29T02:19:37;95908.44;;;19.00;100.00
54994;BME280;40891;47.242;8.648;2023-07-29T02:22:02;95902.56;;;18.98;100.00
54994;BME280;40891;47.242;8.648;2023-07-29T02:24:28;95909.47;;;19.02;100.00
54994;BME280;40891;47.242;8.648;2023-07-29T02:26:54;95899.19;;;19.05;100.00
54994;BME280;40891;47.242;8.648;2023-07-29T02:29:19;95903.28;;;19.10;100.00
54994;BME280;40891;47.242;8.648;2023-07-29T02:31:44;95897.91;;;19.12;100.00
54994;BME280;40891;47.242;8.648;2023-07-29T02:34:10;95900.44;;;19.10;100.00
54994;BME280;40891;47.242;8.648;2023-07-29T02:36:35;95910.22;;;19.09;100.00
54994;BME280;40891;47.242;8.648;2023-07-29T02:39:00;95939.44;;;19.00;100.00
54994;BME280;40891;47.242;8.648;2023-07-29T02:41:26;95958.63;;;19.07;100.00
54994;BME280;40891;47.242;8.648;2023-07-29T02:43:51;95991.88;;;19.20;100.00
54994;BME280;40891;47.242;8.648;2023-07-29T02:46:17;95938.31;;;19.20;100.00
54994;BME280;40891;47.242;8.648;2023-07-29T02:48:44;95945.19;;;19.30;100.00
54994;BME280;40891;47.242;8.648;2023-07-29T02:51:09;95923.69;;;19.27;100.00
54994;BME280;40891;47.242;8.648;2023-07-29T02:53:35;95942.25;;;19.06;100.00
54994;BME280;40891;47.242;8.648;2023-07-29T02:56:04;95962.28;;;18.96;100.00
54994;BME280;40891;47.242;8.648;2023-07-29T02:58:31;95962.81;;;18.89;100.00
54994;BME280;40891;47.242;8.648;2023-07-29T03:01:04;95968.69;;;18.86;100.00
54994;BME280;40891;47.242;8.648;2023-07-29T03:03:30;95979.22;;;18.85;100.00
54994;BME280;40891;47.242;8.648;2023-07-29T03:06:06;95966.16;;;18.88;100.00
54994;BME280;40891;47.242;8.648;2023-07-29T03:08:32;95955.44;;;18.81;100.00
54994;BME280;40891;47.242;8.648;2023-07-29T03:10:58;95951.06;;;18.74;100.00
54994;BME280;40891;47.242;8.648;2023-07-29T03:13:24;95943.16;;;18.78;100.00
54994;BME280;40891;47.242;8.648;2023-07-29T03:15:49;95950.09;;;18.66;100.00
54994;BME280;40891;47.242;8.648;2023-07-29T03:18:15;95946.03;;;18.62;100.00
54994;BME280;40891;47.242;8.648;2023-07-29T03:20:40;95954.19;;;18.71;100.00
54994;BME280;40891;47.242;8.648;2023-07-29T03:23:06;95953.69;;;18.67;100.00
54994;BME280;40891;47.242;8.648;2023-07-29T03:25:31;95969.81;;;18.61;100.00
54994;BME280;40891;47.242;8.648;2023-07-29T03:27:57;95984.16;;;18.63;100.00
54994;BME280;40891;47.242;8.648;2023-07-29T03:30:22;96027.69;;;18.62;100.00
54994;BME280;40891;47.242;8.648;2023-07-29T03:32:49;96038.19;;;18.67;100.00
54994;BME280;40891;47.242;8.648;2023-07-29T03:35:14;96038.94;;;18.73;100.00
54994;BME280;40891;47.242;8.648;2023-07-29T03:37:40;96023.78;;;18.81;100.00
54994;BME280;40891;47.242;8.648;2023-07-29T03:40:06;96014.56;;;18.86;100.00
54994;BME280;40891;47.242;8.648;2023-07-29T03:42:32;96000.22;;;18.90;100.00
54994;BME280;40891;47.242;8.648;2023-07-29T03:44:57;95985.06;;;18.93;100.00
54994;BME280;40891;47.242;8.648;2023-07-29T03:47:23;95984.53;;;19.00;100.00
54994;BME280;40891;47.242;8.648;2023-07-29T03:49:48;95986.09;;;18.95;100.00
54994;BME280;40891;47.242;8.648;2023-07-29T03:52:14;95973.31;;;18.94;100.00
54994;BME280;40891;47.242;8.648;2023-07-29T03:54:39;95958.19;;;18.97;100.00
54994;BME280;40891;47.242;8.648;2023-07-29T03:57:04;95965.34;;;18.98;100.00
54994;BME280;40891;47.242;8.648;2023-07-29T03:59:30;95968.44;;;18.89;100.00
54994;BME280;40891;47.242;8.648;2023-07-29T04:01:55;95966.13;;;18.93;100.00
54994;BME280;40891;47.242;8.648;2023-07-29T04:04:21;95960.72;;;18.95;100.00
54994;BME280;40891;47.242;8.648;2023-07-29T04:06:46;95956.63;;;19.02;100.00
54994;BME280;40891;47.242;8.648;2023-07-29T04:09:11;95960.72;;;18.95;100.00
54994;BME280;40891;47.242;8.648;2023-07-29T04:11:37;95948.63;;;19.12;100.00
54994;BME280;40891;47.242;8.648;2023-07-29T04:14:02;95968.09;;;19.10;100.00
54994;BME280;40891;47.242;8.648;2023-07-29T04:16:27;95981.75;;;18.89;100.00
54994;BME280;40891;47.242;8.648;2023-07-29T04:18:54;95978.69;;;18.87;100.00
54994;BME280;40891;47.242;8.648;2023-07-29T04:21:19;95987.69;;;18.80;100.00
54994;BME280;40891;47.242;8.648;2023-07-29T04:23:44;95978.75;;;18.76;100.00
54994;BME280;40891;47.242;8.648;2023-07-29T04:26:09;95983.31;;;18.79;100.00
54994;BME280;40891;47.242;8.648;2023-07-29T04:28:35;95986.44;;;18.75;100.00
54994;BME280;40891;47.242;8.648;2023-07-29T04:31:00;95996.69;;;18.67;100.00
54994;BME280;40891;47.242;8.648;2023-07-29T04:33:25;96000.25;;;18.73;100.00
54994;BME280;40891;47.242;8.648;2023-07-29T04:35:51;95997.44;;;18.73;100.00
54994;BME280;40891;47.242;8.648;2023-07-29T04:38:16;95997.66;;;18.86;100.00
54994;BME280;40891;47.242;8.648;2023-07-29T04:40:41;95980.22;;;18.93;100.00
54994;BME280;40891;47.242;8.648;2023-07-29T04:43:06;95979.91;;;19.02;100.00
54994;BME280;40891;47.242;8.648;2023-07-29T04:45:32;95980.66;;;19.14;100.00
54994;BME280;40891;47.242;8.648;2023-07-29T04:47:58;95974.53;;;19.05;100.00
54994;BME280;40891;47.242;8.648;2023-07-29T04:50:24;95974.25;;;19.08;100.00
54994;BME280;40891;47.242;8.648;2023-07-29T04:52:49;95991.16;;;19.14;100.00
54994;BME280;40891;47.242;8.648;2023-07-29T04:55:14;95990.16;;;19.06;100.00
54994;BME280;40891;47.242;8.648;2023-07-29T04:57:40;95984.03;;;19.01;100.00
54994;BME280;40891;47.242;8.648;2023-07-29T05:00:05;95994.50;;;19.07;100.00
54994;BME280;40891;47.242;8.648;2023-07-29T05:02:31;95981.44;;;19.09;100.00
54994;BME280;40891;47.242;8.648;2023-07-29T05:04:56;95980.66;;;19.09;100.00
54994;BME280;40891;47.242;8.648;2023-07-29T05:07:21;95980.91;;;19.16;100.00
54994;BME280;40891;47.242;8.648;2023-07-29T05:09:47;95976.78;;;19.17;100.00
54994;BME280;40891;47.242;8.648;2023-07-29T05:12:13;95992.91;;;19.17;100.00
54994;BME280;40891;47.242;8.648;2023-07-29T05:14:38;95993.91;;;19.25;100.00
54994;BME280;40891;47.242;8.648;2023-07-29T05:17:03;96004.94;;;19.28;100.00
54994;BME280;40891;47.242;8.648;2023-07-29T05:19:29;95988.75;;;19.29;100.00
54994;BME280;40891;47.242;8.648;2023-07-29T05:21:54;95994.41;;;19.29;100.00
54994;BME280;40891;47.242;8.648;2023-07-29T05:24:19;95995.94;;;19.30;100.00
54994;BME280;40891;47.242;8.648;2023-07-29T05:26:45;95991.09;;;19.25;100.00
54994;BME280;40891;47.242;8.648;2023-07-29T05:29:10;95995.16;;;19.29;100.00
54994;BME280;40891;47.242;8.648;2023-07-29T05:31:35;95995.94;;;19.30;100.00
54994;BME280;40891;47.242;8.648;2023-07-29T05:34:00;95999.25;;;19.34;100.00
54994;BME280;40891;47.242;8.648;2023-07-29T05:36:26;96002.31;;;19.47;100.00
54994;BME280;40891;47.242;8.648;2023-07-29T05:38:52;95995.09;;;19.51;100.00
54994;BME280;40891;47.242;8.648;2023-07-29T05:41:17;96000.97;;;19.53;100.00
54994;BME280;40891;47.242;8.648;2023-07-29T05:43:42;95993.75;;;19.58;100.00
54994;BME280;40891;47.242;8.648;2023-07-29T05:46:09;96000.19;;;19.58;100.00
54994;BME280;40891;47.242;8.648;2023-07-29T05:48:34;96005.28;;;19.60;100.00
54994;BME280;40891;47.242;8.648;2023-07-29T05:51:00;96004.31;;;19.52;100.00
54994;BME280;40891;47.242;8.648;2023-07-29T05:53:25;96002.81;;;19.45;100.00
54994;BME280;40891;47.242;8.648;2023-07-29T05:55:50;96000.50;;;19.49;100.00
54994;BME280;40891;47.242;8.648;2023-07-29T05:58:16;96011.47;;;19.58;100.00
54994;BME280;40891;47.242;8.648;2023-07-29T06:00:41;96008.31;;;19.67;100.00
54994;BME280;40891;47.242;8.648;2023-07-29T06:03:07;96006.22;;;19.74;100.00
54994;BME280;40891;47.242;8.648;2023-07-29T06:05:32;96012.31;;;19.83;100.00
54994;BME280;40891;47.242;8.648;2023-07-29T06:07:57;96010.47;;;19.91;100.00
54994;BME280;40891;47.242;8.648;2023-07-29T06:10:23;96012.63;;;20.09;100.00
54994;BME280;40891;47.242;8.648;2023-07-29T06:12:48;96003.03;;;20.29;100.00
54994;BME280;40891;47.242;8.648;2023-07-29T06:15:14;96012.63;;;20.45;100.00
54994;BME280;40891;47.242;8.648;2023-07-29T06:17:40;96008.63;;;20.59;100.00
54994;BME280;40891;47.242;8.648;2023-07-29T06:20:06;96008.31;;;20.68;100.00
54994;BME280;40891;47.242;8.648;2023-07-29T06:22:31;96013.25;;;20.86;100.00
54994;BME280;40891;47.242;8.648;2023-07-29T06:24:57;96020.00;;;21.01;100.00
54994;BME280;40891;47.242;8.648;2023-07-29T06:27:22;96021.00;;;21.04;100.00
54994;BME280;40891;47.242;8.648;2023-07-29T06:29:49;96027.75;;;21.01;100.00
54994;BME280;40891;47.242;8.648;2023-07-29T06:32:15;96017.41;;;21.03;100.00
54994;BME280;40891;47.242;8.648;2023-07-29T06:34:40;96016.09;;;21.10;100.00
54994;BME280;40891;47.242;8.648;2023-07-29T06:37:05;96024.44;;;20.97;100.00
54994;BME280;40891;47.242;8.648;2023-07-29T06:39:31;96018.25;;;20.98;100.00
54994;BME280;40891;47.242;8.648;2023-07-29T06:41:56;96027.19;;;21.08;100.00
54994;BME280;40891;47.242;8.648;2023-07-29T06:44:21;96031.09;;;20.99;100.00
54994;BME280;40891;47.242;8.648;2023-07-29T06:46:47;96017.50;;;20.98;100.00
54994;BME280;40891;47.242;8.648;2023-07-29T06:49:12;96025.88;;;21.09;100.00
54994;BME280;40891;47.242;8.648;2023-07-29T06:51:37;96019.97;;;21.07;100.00
54994;BME280;40891;47.242;8.648;2023-07-29T06:54:03;96022.81;;;21.07;100.00
54994;BME280;40891;47.242;8.648;2023-07-29T06:56:28;96022.25;;;21.09;100.00
54994;BME280;40891;47.242;8.648;2023-07-29T06:58:54;96021.81;;;20.99;100.00
54994;BME280;40891;47.242;8.648;2023-07-29T07:01:19;96022.41;;;20.92;100.00
54994;BME280;40891;47.242;8.648;2023-07-29T07:03:44;96012.72;;;20.87;100.00
54994;BME280;40891;47.242;8.648;2023-07-29T07:06:10;96018.91;;;20.86;100.00
54994;BME280;40891;47.242;8.648;2023-07-29T07:08:35;96025.50;;;20.94;100.00
54994;BME280;40891;47.242;8.648;2023-07-29T07:11:00;96023.34;;;21.06;100.00
54994;BME280;40891;47.242;8.648;2023-07-29T07:13:26;96020.31;;;21.22;100.00
54994;BME280;40891;47.242;8.648;2023-07-29T07:15:54;96016.53;;;21.38;100.00
54994;BME280;40891;47.242;8.648;2023-07-29T07:18:19;96008.81;;;21.39;100.00
54994;BME280;40891;47.242;8.648;2023-07-29T07:20:50;96013.09;;;21.45;100.00
54994;BME280;40891;47.242;8.648;2023-07-29T07:23:16;96023.00;;;21.33;100.00
54994;BME280;40891;47.242;8.648;2023-07-29T07:25:42;96011.91;;;21.35;100.00
54994;BME280;40891;47.242;8.648;2023-07-29T07:28:08;96013.22;;;21.34;100.00
54994;BME280;40891;47.242;8.648;2023-07-29T07:30:33;96014.38;;;21.44;100.00
54994;BME280;40891;47.242;8.648;2023-07-29T07:32:58;96014.84;;;21.48;100.00
54994;BME280;40891;47.242;8.648;2023-07-29T07:35:24;96012.47;;;21.52;100.00
54994;BME280;40891;47.242;8.648;2023-07-29T07:37:49;96015.22;;;21.58;100.00
54994;BME280;40891;47.242;8.648;2023-07-29T07:40:14;96001.16;;;21.71;100.00
54994;BME280;40891;47.242;8.648;2023-07-29T07:42:39;96001.31;;;21.79;100.00
54994;BME280;40891;47.242;8.648;2023-07-29T07:45:05;96003.81;;;21.82;100.00
54994;BME280;40891;47.242;8.648;2023-07-29T07:47:30;95999.03;;;21.96;100.00
54994;BME280;40891;47.242;8.648;2023-07-29T07:49:56;95994.78;;;22.02;100.00
54994;BME280;40891;47.242;8.648;2023-07-29T07:52:21;95999.09;;;21.90;99.37
54994;BME280;40891;47.242;8.648;2023-07-29T07:54:54;95989.63;;;21.88;98.79
54994;BME280;40891;47.242;8.648;2023-07-29T07:57:20;95990.69;;;21.85;100.00
54994;BME280;40891;47.242;8.648;2023-07-29T07:59:46;95990.81;;;21.92;98.00
54994;BME280;40891;47.242;8.648;2023-07-29T08:02:11;95988.22;;;21.94;97.02
54994;BME280;40891;47.242;8.648;2023-07-29T08:04:37;95988.13;;;22.00;96.12
54994;BME280;40891;47.242;8.648;2023-07-29T08:07:02;95984.47;;;22.05;96.18
54994;BME280;40891;47.242;8.648;2023-07-29T08:09:27;95983.06;;;22.11;95.40
54994;BME280;40891;47.242;8.648;2023-07-29T08:11:52;95997.31;;;22.06;95.81
54994;BME280;40891;47.242;8.648;2023-07-29T08:14:18;95989.22;;;21.97;98.23
54994;BME280;40891;47.242;8.648;2023-07-29T08:16:43;95991.72;;;21.82;96.71
54994;BME280;40891;47.242;8.648;2023-07-29T08:19:08;95986.59;;;21.80;100.00
54994;BME280;40891;47.242;8.648;2023-07-29T08:21:35;95991.41;;;22.04;99.91
54994;BME280;40891;47.242;8.648;2023-07-29T08:24:00;95992.09;;;22.10;96.62
54994;BME280;40891;47.242;8.648;2023-07-29T08:26:25;95981.81;;;22.25;96.60
54994;BME280;40891;47.242;8.648;2023-07-29T08:28:51;95986.19;;;22.40;95.53
54994;BME280;40891;47.242;8.648;2023-07-29T08:31:16;95982.81;;;22.41;94.02
54994;BME280;40891;47.242;8.648;2023-07-29T08:33:41;95974.78;;;22.58;91.59
54994;BME280;40891;47.242;8.648;2023-07-29T08:36:07;95979.34;;;22.48;90.20
54994;BME280;40891;47.242;8.648;2023-07-29T08:38:32;95977.41;;;22.56;92.25
54994;BME280;40891;47.242;8.648;2023-07-29T08:41:31;95974.72;;;22.64;89.38
54994;BME280;40891;47.242;8.648;2023-07-29T08:44:21;95978.94;;;22.57;89.25
54994;BME280;40891;47.242;8.648;2023-07-29T08:46:47;95972.22;;;22.73;88.12
54994;BME280;40891;47.242;8.648;2023-07-29T08:49:14;95978.75;;;23.08;87.26
54994;BME280;40891;47.242;8.648;2023-07-29T08:51:43;95966.13;;;23.35;90.05
54994;BME280;40891;47.242;8.648;2023-07-29T08:54:10;95968.00;;;23.66;87.11
54994;BME280;40891;47.242;8.648;2023-07-29T08:56:36;95964.44;;;23.86;88.97
54994;BME280;40891;47.242;8.648;2023-07-29T08:59:01;95968.09;;;24.07;87.62
54994;BME280;40891;47.242;8.648;2023-07-29T09:01:28;95967.28;;;24.20;86.12
54994;BME280;40891;47.242;8.648;2023-07-29T09:03:55;95969.16;;;24.17;85.88
54994;BME280;40891;47.242;8.648;2023-07-29T09:06:21;95966.16;;;24.23;83.59
54994;BME280;40891;47.242;8.648;2023-07-29T09:08:49;95960.09;;;24.47;86.94
54994;BME280;40891;47.242;8.648;2023-07-29T09:11:15;95957.97;;;24.61;85.91
54994;BME280;40891;47.242;8.648;2023-07-29T09:13:42;95951.75;;;24.90;83.91
54994;BME280;40891;47.242;8.648;2023-07-29T09:16:08;95957.06;;;24.94;77.83
54994;BME280;40891;47.242;8.648;2023-07-29T09:18:34;95954.75;;;25.21;79.58
54994;BME280;40891;47.242;8.648;2023-07-29T09:20:59;95957.72;;;25.43;77.65
54994;BME280;40891;47.242;8.648;2023-07-29T09:23:26;95952.91;;;25.66;77.86
54994;BME280;40891;47.242;8.648;2023-07-29T09:26:02;95943.66;;;25.89;77.94
54994;BME280;40891;47.242;8.648;2023-07-29T09:28:35;95946.50;;;25.81;76.01
54994;BME280;40891;47.242;8.648;2023-07-29T09:31:01;95948.03;;;25.90;77.81
54994;BME280;40891;47.242;8.648;2023-07-29T09:33:27;95939.50;;;25.97;74.22
54994;BME280;40891;47.242;8.648;2023-07-29T09:35:53;95947.28;;;25.97;74.83
54994;BME280;40891;47.242;8.648;2023-07-29T09:38:28;95945.22;;;25.97;74.19
54994;BME280;40891;47.242;8.648;2023-07-29T09:40:57;95942.75;;;26.01;74.05
54994;BME280;40891;47.242;8.648;2023-07-29T09:43:30;95951.09;;;25.99;74.35
54994;BME280;40891;47.242;8.648;2023-07-29T09:46:00;95935.78;;;26.40;74.39
54994;BME280;40891;47.242;8.648;2023-07-29T09:48:25;95934.44;;;27.02;72.83
54994;BME280;40891;47.242;8.648;2023-07-29T09:50:51;95934.31;;;27.47;69.46
54994;BME280;40891;47.242;8.648;2023-07-29T09:53:16;95937.94;;;27.87;65.36
54994;BME280;40891;47.242;8.648;2023-07-29T09:55:47;95939.56;;;28.30;64.42
54994;BME280;40891;47.242;8.648;2023-07-29T09:58:13;95934.09;;;28.49;65.11
54994;BME280;40891;47.242;8.648;2023-07-29T10:00:39;95938.88;;;28.96;60.72
54994;BME280;40891;47.242;8.648;2023-07-29T10:03:06;95938.75;;;29.45;61.15
54994;BME280;40891;47.242;8.648;2023-07-29T10:05:32;95932.25;;;29.62;61.37
54994;BME280;40891;47.242;8.648;2023-07-29T10:08:00;95945.50;;;29.40;60.33
54994;BME280;40891;47.242;8.648;2023-07-29T10:10:25;95941.25;;;29.58;61.17
54994;BME280;40891;47.242;8.648;2023-07-29T10:12:53;95943.34;;;29.58;60.53
54994;BME280;40891;47.242;8.648;2023-07-29T10:15:20;95933.81;;;29.73;59.50
54994;BME280;40891;47.242;8.648;2023-07-29T10:17:46;95927.41;;;29.82;57.63
54994;BME280;40891;47.242;8.648;2023-07-29T10:20:11;95936.91;;;30.28;56.65
54994;BME280;40891;47.242;8.648;2023-07-29T10:22:41;95945.63;;;30.20;57.61
54994;BME280;40891;47.242;8.648;2023-07-29T10:25:17;95939.69;;;30.36;57.14
54994;BME280;40891;47.242;8.648;2023-07-29T10:27:56;95936.91;;;30.55;57.84
54994;BME280;40891;47.242;8.648;2023-07-29T10:30:28;95941.91;;;30.64;57.94
54994;BME280;40891;47.242;8.648;2023-07-29T10:32:54;95942.75;;;30.20;57.11
54994;BME280;40891;47.242;8.648;2023-07-29T10:35:23;95934.56;;;30.17;57.18
54994;BME280;40891;47.242;8.648;2023-07-29T10:37:48;95924.28;;;29.70;58.61
54994;BME280;40891;47.242;8.648;2023-07-29T10:40:16;95923.81;;;29.64;59.49
54994;BME280;40891;47.242;8.648;2023-07-29T10:43:24;95914.25;;;30.59;57.21
54994;BME280;40891;47.242;8.648;2023-07-29T10:45:44;95908.91;;;30.91;55.06
54994;BME280;40891;47.242;8.648;2023-07-29T10:48:11;95918.13;;;30.44;53.95
54994;BME280;40891;47.242;8.648;2023-07-29T10:50:37;95917.56;;;30.65;54.23
54994;BME280;40891;47.242;8.648;2023-07-29T10:53:02;95901.13;;;30.65;55.42
54994;BME280;40891;47.242;8.648;2023-07-29T10:55:33;95908.44;;;30.85;55.31
54994;BME280;40891;47.242;8.648;2023-07-29T10:58:16;95910.88;;;30.89;53.35
54994;BME280;40891;47.242;8.648;2023-07-29T11:00:45;95890.19;;;31.38;53.09
54994;BME280;40891;47.242;8.648;2023-07-29T11:03:12;95895.94;;;31.86;50.69
54994;BME280;40891;47.242;8.648;2023-07-29T11:05:51;95889.69;;;31.90;53.67
54994;BME280;40891;47.242;8.648;2023-07-29T11:11:00;95872.03;;;31.65;51.71
54994;BME280;40891;47.242;8.648;2023-07-29T11:13:30;95872.13;;;31.95;50.08
54994;BME280;40891;47.242;8.648;2023-07-29T11:15:56;95865.16;;;32.79;46.89
54994;BME280;40891;47.242;8.648;2023-07-29T11:18:26;95849.53;;;33.24;47.20
54994;BME280;40891;47.242;8.648;2023-07-29T11:20:53;95834.22;;;32.79;46.59
54994;BME280;40891;47.242;8.648;2023-07-29T11:23:19;95840.16;;;32.51;48.92
54994;BME280;40891;47.242;8.648;2023-07-29T11:25:45;95837.34;;;32.32;47.67
54994;BME280;40891;47.242;8.648;2023-07-29T11:28:10;95837.22;;;31.70;48.84
54994;BME280;40891;47.242;8.648;2023-07-29T11:30:39;95825.66;;;31.89;48.49
54994;BME280;40891;47.242;8.648;2023-07-29T11:33:04;95825.47;;;31.28;49.70
54994;BME280;40891;47.242;8.648;2023-07-29T11:35:29;95833.94;;;31.07;52.58
54994;BME280;40891;47.242;8.648;2023-07-29T11:37:57;95831.38;;;32.08;47.22
54994;BME280;40891;47.242;8.648;2023-07-29T11:40:23;95838.66;;;32.40;46.99
54994;BME280;40891;47.242;8.648;2023-07-29T11:42:50;95850.72;;;31.48;48.77
54994;BME280;40891;47.242;8.648;2023-07-29T11:45:16;95878.81;;;29.57;49.69
54994;BME280;40891;47.242;8.648;2023-07-29T11:47:41;95889.69;;;28.23;54.32
54994;BME280;40891;47.242;8.648;2023-07-29T11:50:08;95882.63;;;27.05;58.85
54994;BME280;40891;47.242;8.648;2023-07-29T11:52:36;95910.25;;;25.97;62.20
54994;BME280;40891;47.242;8.648;2023-07-29T11:55:02;95909.75;;;25.47;64.31
54994;BME280;40891;47.242;8.648;2023-07-29T11:57:29;95927.16;;;25.00;69.87
54994;BME280;40891;47.242;8.648;2023-07-29T11:59:55;95906.69;;;26.34;68.21
54994;BME280;40891;47.242;8.648;2023-07-29T12:02:20;95899.03;;;26.97;64.76
54994;BME280;40891;47.242;8.648;2023-07-29T12:04:47;95905.00;;;27.39;64.26
54994;BME280;40891;47.242;8.648;2023-07-29T12:07:14;95911.53;;;27.17;66.00
54994;BME280;40891;47.242;8.648;2023-07-29T12:09:41;95897.34;;;26.94;66.96
54994;BME280;40891;47.242;8.648;2023-07-29T12:12:07;95904.50;;;27.10;67.59
54994;BME280;40891;47.242;8.648;2023-07-29T12:14:33;95914.31;;;26.62;68.48
54994;BME280;40891;47.242;8.648;2023-07-29T12:17:00;95913.34;;;26.59;69.18
54994;BME280;40891;47.242;8.648;2023-07-29T12:19:34;95912.78;;;26.38;68.88
54994;BME280;40891;47.242;8.648;2023-07-29T12:22:01;95916.97;;;26.14;69.80
54994;BME280;40891;47.242;8.648;2023-07-29T12:24:28;95910.09;;;26.17;70.92
54994;BME280;40891;47.242;8.648;2023-07-29T12:26:54;95909.69;;;26.06;69.63
54994;BME280;40891;47.242;8.648;2023-07-29T12:29:19;95923.59;;;25.51;71.42
54994;BME280;40891;47.242;8.648;2023-07-29T12:31:45;95929.53;;;25.60;73.24
54994;BME280;40891;47.242;8.648;2023-07-29T12:34:20;95935.00;;;25.51;71.25
54994;BME280;40891;47.242;8.648;2023-07-29T12:36:50;95942.03;;;25.14;73.40
54994;BME280;40891;47.242;8.648;2023-07-29T12:39:39;95942.59;;;25.20;70.33
54994;BME280;40891;47.242;8.648;2023-07-29T12:42:05;95940.72;;;25.58;72.27
54994;BME280;40891;47.242;8.648;2023-07-29T12:44:32;95946.50;;;25.81;72.60
54994;BME280;40891;47.242;8.648;2023-07-29T12:46:58;95960.75;;;25.81;70.19
54994;BME280;40891;47.242;8.648;2023-07-29T12:49:23;95953.28;;;25.71;70.35
54994;BME280;40891;47.242;8.648;2023-07-29T12:51:49;95950.63;;;25.73;70.34
54994;BME280;40891;47.242;8.648;2023-07-29T12:54:15;95959.78;;;25.79;69.18
54994;BME280;40891;47.242;8.648;2023-07-29T12:56:40;95961.41;;;25.59;68.90
54994;BME280;40891;47.242;8.648;2023-07-29T12:59:05;95966.34;;;25.58;71.22